sensor_id;sensor_type;location;lat;lon;timestamp;P1;durP1;ratioP1;P2;durP2;ratioP2
13807;SDS011;40769;51.512;5.494;2023-12-14T00:01:39;7.43;;;6.82;;
13807;SDS011;40769;51.512;5.494;2023-12-14T00:04:06;7.47;;;6.88;;
13807;SDS011;40769;51.512;5.494;2023-12-14T00:06:32;6.78;;;6.28;;
13807;SDS011;40769;51.512;5.494;2023-12-14T00:09:01;6.22;;;5.63;;
13807;SDS011;40769;51.512;5.494;2023-12-14T00:11:26;7.10;;;6.50;;
13807;SDS011;40769;51.512;5.494;2023-12-14T00:13:52;6.40;;;5.90;;
13807;SDS011;40769;51.512;5.494;2023-12-14T00:16:17;6.93;;;6.32;;
13807;SDS011;40769;51.512;5.494;2023-12-14T00:18:43;6.00;;;5.50;;
13807;SDS011;40769;51.512;5.494;2023-12-14T00:21:08;6.30;;;5.80;;
13807;SDS011;40769;51.512;5.494;2023-12-14T00:23:34;6.07;;;5.60;;
13807;SDS011;40769;51.512;5.494;2023-12-14T00:25:59;5.80;;;5.38;;
13807;SDS011;40769;51.512;5.494;2023-12-14T00:28:25;6.25;;;5.75;;
13807;SDS011;40769;51.512;5.494;2023-12-14T00:30:51;5.90;;;5.50;;
13807;SDS011;40769;51.512;5.494;2023-12-14T00:33:18;6.45;;;5.95;;
13807;SDS011;40769;51.512;5.494;2023-12-14T00:35:44;6.80;;;6.25;;
13807;SDS011;40769;51.512;5.494;2023-12-14T00:38:09;6.75;;;6.15;;
13807;SDS011;40769;51.512;5.494;2023-12-14T00:40:35;7.80;;;7.15;;
13807;SDS011;40769;51.512;5.494;2023-12-14T00:43:01;6.63;;;6.13;;
13807;SDS011;40769;51.512;5.494;2023-12-14T00:45:26;6.13;;;5.63;;
13807;SDS011;40769;51.512;5.494;2023-12-14T00:47:52;6.68;;;6.15;;
13807;SDS011;40769;51.512;5.494;2023-12-14T00:50:17;7.68;;;7.07;;
13807;SDS011;40769;51.512;5.494;2023-12-14T00:52:43;6.78;;;6.28;;
13807;SDS011;40769;51.512;5.494;2023-12-14T00:55:08;6.82;;;6.30;;
13807;SDS011;40769;51.512;5.494;2023-12-14T00:57:34;8.40;;;7.70;;
13807;SDS011;40769;51.512;5.494;2023-12-14T01:00:00;8.40;;;7.70;;
13807;SDS011;40769;51.512;5.494;2023-12-14T01:02:25;10.48;;;9.57;;
13807;SDS011;40769;51.512;5.494;2023-12-14T01:04:51;10.25;;;9.35;;
13807;SDS011;40769;51.512;5.494;2023-12-14T01:07:16;10.75;;;9.82;;
13807;SDS011;40769;51.512;5.494;2023-12-14T01:09:42;11.02;;;10.07;;
13807;SDS011;40769;51.512;5.494;2023-12-14T01:12:07;9.90;;;9.00;;
13807;SDS011;40769;51.512;5.494;2023-12-14T01:14:33;13.00;;;11.90;;
13807;SDS011;40769;51.512;5.494;2023-12-14T01:17:01;13.60;;;12.40;;
13807;SDS011;40769;51.512;5.494;2023-12-14T01:19:27;11.20;;;10.18;;
13807;SDS011;40769;51.512;5.494;2023-12-14T01:21:53;10.45;;;9.55;;
13807;SDS011;40769;51.512;5.494;2023-12-14T01:24:20;13.70;;;12.50;;
13807;SDS011;40769;51.512;5.494;2023-12-14T01:26:45;11.32;;;10.32;;
13807;SDS011;40769;51.512;5.494;2023-12-14T01:29:11;10.77;;;9.82;;
13807;SDS011;40769;51.512;5.494;2023-12-14T01:31:37;9.75;;;8.85;;
13807;SDS011;40769;51.512;5.494;2023-12-14T01:34:02;8.68;;;7.88;;
13807;SDS011;40769;51.512;5.494;2023-12-14T01:36:28;10.10;;;9.25;;
13807;SDS011;40769;51.512;5.494;2023-12-14T01:38:53;10.23;;;9.32;;
13807;SDS011;40769;51.512;5.494;2023-12-14T01:41:19;11.80;;;10.80;;
13807;SDS011;40769;51.512;5.494;2023-12-14T01:43:44;9.13;;;8.32;;
13807;SDS011;40769;51.512;5.494;2023-12-14T01:46:10;9.23;;;8.43;;
13807;SDS011;40769;51.512;5.494;2023-12-14T01:48:36;11.23;;;10.15;;
13807;SDS011;40769;51.512;5.494;2023-12-14T01:51:02;8.20;;;7.50;;
13807;SDS011;40769;51.512;5.494;2023-12-14T01:53:27;9.43;;;8.63;;
13807;SDS011;40769;51.512;5.494;2023-12-14T01:55:53;8.30;;;7.60;;
13807;SDS011;40769;51.512;5.494;2023-12-14T01:58:19;8.57;;;7.88;;
13807;SDS011;40769;51.512;5.494;2023-12-14T02:00:49;8.35;;;7.65;;
13807;SDS011;40769;51.512;5.494;2023-12-14T02:03:35;7.15;;;6.55;;
13807;SDS011;40769;51.512;5.494;2023-12-14T02:06:01;7.63;;;6.97;;
13807;SDS011;40769;51.512;5.494;2023-12-14T02:08:27;8.13;;;7.43;;
13807;SDS011;40769;51.512;5.494;2023-12-14T02:10:54;7.45;;;6.85;;
13807;SDS011;40769;51.512;5.494;2023-12-14T02:13:19;7.95;;;7.25;;
13807;SDS011;40769;51.512;5.494;2023-12-14T02:15:45;8.18;;;7.57;;
13807;SDS011;40769;51.512;5.494;2023-12-14T02:18:12;7.60;;;7.00;;
13807;SDS011;40769;51.512;5.494;2023-12-14T02:20:37;7.22;;;6.63;;
13807;SDS011;40769;51.512;5.494;2023-12-14T02:23:03;6.97;;;6.38;;
13807;SDS011;40769;51.512;5.494;2023-12-14T02:25:28;6.93;;;6.43;;
13807;SDS011;40769;51.512;5.494;2023-12-14T02:27:54;7.40;;;6.80;;
13807;SDS011;40769;51.512;5.494;2023-12-14T02:30:19;6.95;;;6.40;;
13807;SDS011;40769;51.512;5.494;2023-12-14T02:32:45;7.97;;;7.38;;
13807;SDS011;40769;51.512;5.494;2023-12-14T02:35:11;7.68;;;7.07;;
13807;SDS011;40769;51.512;5.494;2023-12-14T02:37:38;8.55;;;7.85;;
13807;SDS011;40769;51.512;5.494;2023-12-14T02:40:06;7.97;;;7.30;;
13807;SDS011;40769;51.512;5.494;2023-12-14T02:42:32;9.10;;;8.30;;
13807;SDS011;40769;51.512;5.494;2023-12-14T02:44:58;7.28;;;6.68;;
13807;SDS011;40769;51.512;5.494;2023-12-14T02:47:24;8.68;;;7.88;;
13807;SDS011;40769;51.512;5.494;2023-12-14T02:49:50;8.32;;;7.60;;
13807;SDS011;40769;51.512;5.494;2023-12-14T02:52:15;9.40;;;8.60;;
13807;SDS011;40769;51.512;5.494;2023-12-14T02:54:41;8.65;;;7.93;;
13807;SDS011;40769;51.512;5.494;2023-12-14T02:57:07;7.50;;;6.90;;
13807;SDS011;40769;51.512;5.494;2023-12-14T02:59:32;7.35;;;6.75;;
13807;SDS011;40769;51.512;5.494;2023-12-14T03:01:58;8.27;;;7.57;;
13807;SDS011;40769;51.512;5.494;2023-12-14T03:04:24;8.32;;;7.63;;
13807;SDS011;40769;51.512;5.494;2023-12-14T03:06:50;7.30;;;6.65;;
13807;SDS011;40769;51.512;5.494;2023-12-14T03:09:16;7.78;;;7.15;;
13807;SDS011;40769;51.512;5.494;2023-12-14T03:11:41;8.65;;;7.95;;
13807;SDS011;40769;51.512;5.494;2023-12-14T03:14:07;7.65;;;7.00;;
13807;SDS011;40769;51.512;5.494;2023-12-14T03:16:32;8.75;;;8.00;;
13807;SDS011;40769;51.512;5.494;2023-12-14T03:19:00;8.35;;;7.63;;
13807;SDS011;40769;51.512;5.494;2023-12-14T03:21:26;8.70;;;7.90;;
13807;SDS011;40769;51.512;5.494;2023-12-14T03:23:51;7.57;;;6.93;;
13807;SDS011;40769;51.512;5.494;2023-12-14T03:26:17;8.32;;;7.63;;
13807;SDS011;40769;51.512;5.494;2023-12-14T03:28:43;7.22;;;6.63;;
13807;SDS011;40769;51.512;5.494;2023-12-14T03:31:12;7.90;;;7.20;;
13807;SDS011;40769;51.512;5.494;2023-12-14T03:33:38;7.57;;;6.88;;
13807;SDS011;40769;51.512;5.494;2023-12-14T03:36:04;6.90;;;6.30;;
13807;SDS011;40769;51.512;5.494;2023-12-14T03:38:31;6.85;;;6.25;;
13807;SDS011;40769;51.512;5.494;2023-12-14T03:40:57;7.38;;;6.72;;
13807;SDS011;40769;51.512;5.494;2023-12-14T03:43:22;8.57;;;7.88;;
13807;SDS011;40769;51.512;5.494;2023-12-14T03:45:48;8.38;;;7.68;;
13807;SDS011;40769;51.512;5.494;2023-12-14T03:48:14;8.88;;;7.97;;
13807;SDS011;40769;51.512;5.494;2023-12-14T03:50:39;9.00;;;8.30;;
13807;SDS011;40769;51.512;5.494;2023-12-14T03:53:05;8.30;;;7.60;;
13807;SDS011;40769;51.512;5.494;2023-12-14T03:55:31;7.68;;;7.07;;
13807;SDS011;40769;51.512;5.494;2023-12-14T03:57:57;8.32;;;7.63;;
13807;SDS011;40769;51.512;5.494;2023-12-14T04:00:23;7.13;;;6.53;;
13807;SDS011;40769;51.512;5.494;2023-12-14T04:02:48;8.25;;;7.55;;
13807;SDS011;40769;51.512;5.494;2023-12-14T04:05:14;8.35;;;7.68;;
13807;SDS011;40769;51.512;5.494;2023-12-14T04:07:40;8.60;;;7.90;;
13807;SDS011;40769;51.512;5.494;2023-12-14T04:10:08;7.47;;;6.88;;
13807;SDS011;40769;51.512;5.494;2023-12-14T04:12:35;7.57;;;6.97;;
13807;SDS011;40769;51.512;5.494;2023-12-14T04:15:01;9.23;;;8.52;;
13807;SDS011;40769;51.512;5.494;2023-12-14T04:17:27;7.68;;;7.05;;
13807;SDS011;40769;51.512;5.494;2023-12-14T04:19:53;7.65;;;7.05;;
13807;SDS011;40769;51.512;5.494;2023-12-14T04:22:19;8.02;;;7.35;;
13807;SDS011;40769;51.512;5.494;2023-12-14T04:24:44;8.88;;;8.18;;
13807;SDS011;40769;51.512;5.494;2023-12-14T04:27:10;7.50;;;6.90;;
13807;SDS011;40769;51.512;5.494;2023-12-14T04:29:36;7.78;;;7.18;;
13807;SDS011;40769;51.512;5.494;2023-12-14T04:32:01;7.40;;;6.80;;
13807;SDS011;40769;51.512;5.494;2023-12-14T04:34:27;7.90;;;7.22;;
13807;SDS011;40769;51.512;5.494;2023-12-14T04:36:53;8.27;;;7.68;;
13807;SDS011;40769;51.512;5.494;2023-12-14T04:39:22;8.23;;;7.43;;
13807;SDS011;40769;51.512;5.494;2023-12-14T04:41:51;9.90;;;9.15;;
13807;SDS011;40769;51.512;5.494;2023-12-14T04:44:17;8.25;;;7.55;;
13807;SDS011;40769;51.512;5.494;2023-12-14T04:46:46;8.13;;;7.32;;
13807;SDS011;40769;51.512;5.494;2023-12-14T04:49:12;8.75;;;8.05;;
13807;SDS011;40769;51.512;5.494;2023-12-14T04:51:38;7.55;;;6.95;;
13807;SDS011;40769;51.512;5.494;2023-12-14T04:54:04;8.85;;;8.15;;
13807;SDS011;40769;51.512;5.494;2023-12-14T04:56:29;8.55;;;7.85;;
13807;SDS011;40769;51.512;5.494;2023-12-14T04:58:55;8.35;;;7.65;;
13807;SDS011;40769;51.512;5.494;2023-12-14T05:01:21;8.50;;;7.80;;
13807;SDS011;40769;51.512;5.494;2023-12-14T05:03:46;7.57;;;6.97;;
13807;SDS011;40769;51.512;5.494;2023-12-14T05:06:12;7.63;;;7.03;;
13807;SDS011;40769;51.512;5.494;2023-12-14T05:08:38;7.40;;;6.80;;
13807;SDS011;40769;51.512;5.494;2023-12-14T05:11:04;6.68;;;6.15;;
13807;SDS011;40769;51.512;5.494;2023-12-14T05:13:29;7.30;;;6.55;;
13807;SDS011;40769;51.512;5.494;2023-12-14T05:15:55;7.05;;;6.55;;
13807;SDS011;40769;51.512;5.494;2023-12-14T05:18:22;7.35;;;6.80;;
13807;SDS011;40769;51.512;5.494;2023-12-14T05:20:48;7.90;;;7.30;;
13807;SDS011;40769;51.512;5.494;2023-12-14T05:23:15;8.57;;;7.88;;
13807;SDS011;40769;51.512;5.494;2023-12-14T05:25:40;8.82;;;8.13;;
13807;SDS011;40769;51.512;5.494;2023-12-14T05:28:09;10.60;;;9.70;;
13807;SDS011;40769;51.512;5.494;2023-12-14T05:30:34;10.57;;;9.68;;
13807;SDS011;40769;51.512;5.494;2023-12-14T05:33:00;9.27;;;8.57;;
13807;SDS011;40769;51.512;5.494;2023-12-14T05:35:26;10.00;;;9.10;;
13807;SDS011;40769;51.512;5.494;2023-12-14T05:37:52;9.15;;;8.45;;
13807;SDS011;40769;51.512;5.494;2023-12-14T05:40:18;9.07;;;8.38;;
13807;SDS011;40769;51.512;5.494;2023-12-14T05:42:43;8.60;;;7.90;;
13807;SDS011;40769;51.512;5.494;2023-12-14T05:45:09;9.82;;;9.02;;
13807;SDS011;40769;51.512;5.494;2023-12-14T05:47:35;7.60;;;7.00;;
13807;SDS011;40769;51.512;5.494;2023-12-14T05:50:01;9.00;;;8.30;;
13807;SDS011;40769;51.512;5.494;2023-12-14T05:52:26;8.77;;;8.07;;
13807;SDS011;40769;51.512;5.494;2023-12-14T05:54:52;7.65;;;7.05;;
13807;SDS011;40769;51.512;5.494;2023-12-14T05:57:18;7.82;;;7.22;;
13807;SDS011;40769;51.512;5.494;2023-12-14T05:59:43;9.15;;;8.40;;
13807;SDS011;40769;51.512;5.494;2023-12-14T06:02:09;10.98;;;10.07;;
13807;SDS011;40769;51.512;5.494;2023-12-14T06:04:35;10.70;;;9.80;;
13807;SDS011;40769;51.512;5.494;2023-12-14T06:07:01;9.45;;;8.68;;
13807;SDS011;40769;51.512;5.494;2023-12-14T06:09:26;10.55;;;9.65;;
13807;SDS011;40769;51.512;5.494;2023-12-14T06:11:59;9.38;;;8.57;;
13807;SDS011;40769;51.512;5.494;2023-12-14T06:14:28;8.38;;;7.68;;
13807;SDS011;40769;51.512;5.494;2023-12-14T06:16:54;7.90;;;7.30;;
13807;SDS011;40769;51.512;5.494;2023-12-14T06:19:19;8.18;;;7.53;;
13807;SDS011;40769;51.512;5.494;2023-12-14T06:21:46;8.23;;;7.63;;
13807;SDS011;40769;51.512;5.494;2023-12-14T06:24:12;8.25;;;7.55;;
13807;SDS011;40769;51.512;5.494;2023-12-14T06:26:41;8.57;;;7.88;;
13807;SDS011;40769;51.512;5.494;2023-12-14T06:29:10;8.35;;;7.65;;
13807;SDS011;40769;51.512;5.494;2023-12-14T06:31:37;7.97;;;7.38;;
13807;SDS011;40769;51.512;5.494;2023-12-14T06:34:03;7.38;;;6.78;;
13807;SDS011;40769;51.512;5.494;2023-12-14T06:36:30;7.07;;;6.57;;
13807;SDS011;40769;51.512;5.494;2023-12-14T06:38:56;7.10;;;6.50;;
13807;SDS011;40769;51.512;5.494;2023-12-14T06:41:23;7.38;;;6.78;;
13807;SDS011;40769;51.512;5.494;2023-12-14T06:43:49;8.05;;;7.43;;
13807;SDS011;40769;51.512;5.494;2023-12-14T06:46:15;7.85;;;7.25;;
13807;SDS011;40769;51.512;5.494;2023-12-14T06:48:41;7.55;;;6.95;;
13807;SDS011;40769;51.512;5.494;2023-12-14T06:51:07;7.90;;;7.30;;
13807;SDS011;40769;51.512;5.494;2023-12-14T06:53:33;7.55;;;6.95;;
13807;SDS011;40769;51.512;5.494;2023-12-14T06:56:03;8.07;;;7.38;;
13807;SDS011;40769;51.512;5.494;2023-12-14T06:58:29;8.07;;;7.38;;
13807;SDS011;40769;51.512;5.494;2023-12-14T07:00:54;7.78;;;7.20;;
13807;SDS011;40769;51.512;5.494;2023-12-14T07:03:21;7.72;;;7.13;;
13807;SDS011;40769;51.512;5.494;2023-12-14T07:05:47;9.38;;;8.60;;
13807;SDS011;40769;51.512;5.494;2023-12-14T07:08:12;8.88;;;8.07;;
13807;SDS011;40769;51.512;5.494;2023-12-14T07:10:38;10.23;;;9.43;;
13807;SDS011;40769;51.512;5.494;2023-12-14T07:13:06;10.65;;;9.75;;
13807;SDS011;40769;51.512;5.494;2023-12-14T07:15:33;7.97;;;7.38;;
13807;SDS011;40769;51.512;5.494;2023-12-14T07:17:59;8.40;;;7.75;;
13807;SDS011;40769;51.512;5.494;2023-12-14T07:20:24;8.40;;;7.70;;
13807;SDS011;40769;51.512;5.494;2023-12-14T07:22:50;9.90;;;9.10;;
13807;SDS011;40769;51.512;5.494;2023-12-14T07:25:16;9.18;;;8.45;;
13807;SDS011;40769;51.512;5.494;2023-12-14T07:27:41;8.70;;;8.00;;
13807;SDS011;40769;51.512;5.494;2023-12-14T07:30:08;11.23;;;10.30;;
13807;SDS011;40769;51.512;5.494;2023-12-14T07:32:34;13.48;;;12.27;;
13807;SDS011;40769;51.512;5.494;2023-12-14T07:35:00;11.60;;;10.60;;
13807;SDS011;40769;51.512;5.494;2023-12-14T07:37:26;10.13;;;9.23;;
13807;SDS011;40769;51.512;5.494;2023-12-14T07:39:51;11.05;;;9.90;;
13807;SDS011;40769;51.512;5.494;2023-12-14T07:42:17;9.85;;;8.95;;
13807;SDS011;40769;51.512;5.494;2023-12-14T07:44:45;11.90;;;10.90;;
13807;SDS011;40769;51.512;5.494;2023-12-14T07:47:11;11.82;;;10.73;;
13807;SDS011;40769;51.512;5.494;2023-12-14T07:49:36;11.55;;;10.35;;
13807;SDS011;40769;51.512;5.494;2023-12-14T07:52:02;10.30;;;9.30;;
13807;SDS011;40769;51.512;5.494;2023-12-14T07:54:28;10.45;;;9.45;;
13807;SDS011;40769;51.512;5.494;2023-12-14T07:56:54;10.23;;;9.27;;
13807;SDS011;40769;51.512;5.494;2023-12-14T07:59:19;9.20;;;8.30;;
13807;SDS011;40769;51.512;5.494;2023-12-14T08:01:46;10.05;;;8.80;;
13807;SDS011;40769;51.512;5.494;2023-12-14T08:04:11;8.32;;;7.60;;
13807;SDS011;40769;51.512;5.494;2023-12-14T08:06:37;9.15;;;8.20;;
13807;SDS011;40769;51.512;5.494;2023-12-14T08:09:05;8.10;;;7.30;;
13807;SDS011;40769;51.512;5.494;2023-12-14T08:11:32;7.70;;;7.00;;
13807;SDS011;40769;51.512;5.494;2023-12-14T08:13:57;7.57;;;6.88;;
13807;SDS011;40769;51.512;5.494;2023-12-14T08:16:23;7.90;;;7.18;;
13807;SDS011;40769;51.512;5.494;2023-12-14T08:18:49;8.02;;;7.32;;
13807;SDS011;40769;51.512;5.494;2023-12-14T08:21:15;7.50;;;6.80;;
13807;SDS011;40769;51.512;5.494;2023-12-14T08:23:41;7.10;;;6.50;;
13807;SDS011;40769;51.512;5.494;2023-12-14T08:26:07;7.97;;;7.28;;
13807;SDS011;40769;51.512;5.494;2023-12-14T08:28:35;7.80;;;7.10;;
13807;SDS011;40769;51.512;5.494;2023-12-14T08:31:01;6.93;;;6.32;;
13807;SDS011;40769;51.512;5.494;2023-12-14T08:33:28;6.22;;;5.70;;
13807;SDS011;40769;51.512;5.494;2023-12-14T08:35:54;6.97;;;6.38;;
13807;SDS011;40769;51.512;5.494;2023-12-14T08:38:20;7.20;;;6.50;;
13807;SDS011;40769;51.512;5.494;2023-12-14T08:40:46;7.05;;;6.45;;
13807;SDS011;40769;51.512;5.494;2023-12-14T08:43:11;5.72;;;5.25;;
13807;SDS011;40769;51.512;5.494;2023-12-14T08:45:37;6.13;;;5.63;;
13807;SDS011;40769;51.512;5.494;2023-12-14T08:48:03;6.07;;;5.57;;
13807;SDS011;40769;51.512;5.494;2023-12-14T08:50:29;7.28;;;6.68;;
13807;SDS011;40769;51.512;5.494;2023-12-14T08:52:55;7.22;;;6.57;;
13807;SDS011;40769;51.512;5.494;2023-12-14T08:55:20;6.82;;;6.22;;
13807;SDS011;40769;51.512;5.494;2023-12-14T08:57:46;7.28;;;6.68;;
13807;SDS011;40769;51.512;5.494;2023-12-14T09:00:12;6.93;;;6.32;;
13807;SDS011;40769;51.512;5.494;2023-12-14T09:02:38;6.85;;;6.35;;
13807;SDS011;40769;51.512;5.494;2023-12-14T09:05:04;6.03;;;5.53;;
13807;SDS011;40769;51.512;5.494;2023-12-14T09:07:31;6.15;;;5.65;;
13807;SDS011;40769;51.512;5.494;2023-12-14T09:09:56;5.43;;;4.93;;
13807;SDS011;40769;51.512;5.494;2023-12-14T09:12:22;5.60;;;5.10;;
13807;SDS011;40769;51.512;5.494;2023-12-14T09:14:47;4.93;;;4.53;;
13807;SDS011;40769;51.512;5.494;2023-12-14T09:17:13;5.43;;;5.03;;
13807;SDS011;40769;51.512;5.494;2023-12-14T09:19:39;6.00;;;5.50;;
13807;SDS011;40769;51.512;5.494;2023-12-14T09:22:04;5.70;;;5.20;;
13807;SDS011;40769;51.512;5.494;2023-12-14T09:24:30;6.32;;;5.82;;
13807;SDS011;40769;51.512;5.494;2023-12-14T09:26:56;5.88;;;5.38;;
13807;SDS011;40769;51.512;5.494;2023-12-14T09:29:21;6.30;;;5.70;;
13807;SDS011;40769;51.512;5.494;2023-12-14T09:31:47;6.15;;;5.65;;
13807;SDS011;40769;51.512;5.494;2023-12-14T09:34:13;5.70;;;5.28;;
13807;SDS011;40769;51.512;5.494;2023-12-14T09:36:39;6.40;;;5.90;;
13807;SDS011;40769;51.512;5.494;2023-12-14T09:39:05;5.68;;;5.28;;
13807;SDS011;40769;51.512;5.494;2023-12-14T09:41:33;6.07;;;5.57;;
13807;SDS011;40769;51.512;5.494;2023-12-14T09:43:59;5.70;;;5.20;;
13807;SDS011;40769;51.512;5.494;2023-12-14T09:46:27;5.95;;;5.45;;
13807;SDS011;40769;51.512;5.494;2023-12-14T09:48:52;6.40;;;5.90;;
13807;SDS011;40769;51.512;5.494;2023-12-14T09:51:19;5.40;;;5.00;;
13807;SDS011;40769;51.512;5.494;2023-12-14T09:53:45;6.95;;;6.35;;
13807;SDS011;40769;51.512;5.494;2023-12-14T09:56:11;6.13;;;5.63;;
13807;SDS011;40769;51.512;5.494;2023-12-14T09:58:36;5.45;;;5.05;;
13807;SDS011;40769;51.512;5.494;2023-12-14T10:01:02;7.22;;;6.63;;
13807;SDS011;40769;51.512;5.494;2023-12-14T10:03:29;5.55;;;5.15;;
13807;SDS011;40769;51.512;5.494;2023-12-14T10:05:57;6.32;;;5.82;;
13807;SDS011;40769;51.512;5.494;2023-12-14T10:08:25;5.85;;;5.35;;
13807;SDS011;40769;51.512;5.494;2023-12-14T10:10:52;4.78;;;4.38;;
13807;SDS011;40769;51.512;5.494;2023-12-14T10:13:19;5.20;;;4.80;;
13807;SDS011;40769;51.512;5.494;2023-12-14T10:15:46;6.10;;;5.60;;
13807;SDS011;40769;51.512;5.494;2023-12-14T10:18:23;5.15;;;4.70;;
13807;SDS011;40769;51.512;5.494;2023-12-14T10:20:52;5.97;;;5.47;;
13807;SDS011;40769;51.512;5.494;2023-12-14T10:23:18;5.30;;;4.90;;
13807;SDS011;40769;51.512;5.494;2023-12-14T10:25:44;5.68;;;5.28;;
13807;SDS011;40769;51.512;5.494;2023-12-14T10:28:14;6.80;;;6.13;;
13807;SDS011;40769;51.512;5.494;2023-12-14T10:30:40;6.32;;;5.82;;
13807;SDS011;40769;51.512;5.494;2023-12-14T10:33:06;6.53;;;6.03;;
13807;SDS011;40769;51.512;5.494;2023-12-14T10:35:31;5.60;;;5.10;;
13807;SDS011;40769;51.512;5.494;2023-12-14T10:37:58;5.43;;;5.00;;
13807;SDS011;40769;51.512;5.494;2023-12-14T10:40:28;4.88;;;4.47;;
13807;SDS011;40769;51.512;5.494;2023-12-14T10:42:53;4.97;;;4.50;;
13807;SDS011;40769;51.512;5.494;2023-12-14T10:45:24;5.28;;;4.88;;
13807;SDS011;40769;51.512;5.494;2023-12-14T10:47:57;6.20;;;5.70;;
13807;SDS011;40769;51.512;5.494;2023-12-14T10:50:25;5.00;;;4.57;;
13807;SDS011;40769;51.512;5.494;2023-12-14T10:52:53;5.55;;;5.13;;
13807;SDS011;40769;51.512;5.494;2023-12-14T10:55:23;5.13;;;4.68;;
13807;SDS011;40769;51.512;5.494;2023-12-14T10:58:03;4.85;;;4.45;;
13807;SDS011;40769;51.512;5.494;2023-12-14T11:00:30;6.00;;;4.28;;
13807;SDS011;40769;51.512;5.494;2023-12-14T11:02:56;4.93;;;4.53;;
13807;SDS011;40769;51.512;5.494;2023-12-14T11:05:24;4.45;;;4.07;;
13807;SDS011;40769;51.512;5.494;2023-12-14T11:08:01;5.13;;;4.72;;
13807;SDS011;40769;51.512;5.494;2023-12-14T11:10:38;4.20;;;3.90;;
13807;SDS011;40769;51.512;5.494;2023-12-14T11:13:08;5.00;;;4.60;;
13807;SDS011;40769;51.512;5.494;2023-12-14T11:15:36;4.95;;;4.55;;
13807;SDS011;40769;51.512;5.494;2023-12-14T11:23:32;5.32;;;4.93;;
13807;SDS011;40769;51.512;5.494;2023-12-14T11:25:59;4.75;;;4.35;;
13807;SDS011;40769;51.512;5.494;2023-12-14T11:28:28;5.22;;;4.72;;
13807;SDS011;40769;51.512;5.494;2023-12-14T11:30:55;5.05;;;4.65;;
13807;SDS011;40769;51.512;5.494;2023-12-14T11:33:21;6.00;;;5.50;;
13807;SDS011;40769;51.512;5.494;2023-12-14T11:35:47;5.50;;;5.00;;
13807;SDS011;40769;51.512;5.494;2023-12-14T11:38:12;5.55;;;5.15;;
13807;SDS011;40769;51.512;5.494;2023-12-14T11:40:41;4.75;;;4.35;;
13807;SDS011;40769;51.512;5.494;2023-12-14T11:43:07;4.40;;;4.07;;
13807;SDS011;40769;51.512;5.494;2023-12-14T11:45:37;4.60;;;4.20;;
13807;SDS011;40769;51.512;5.494;2023-12-14T11:48:06;7.28;;;5.70;;
13807;SDS011;40769;51.512;5.494;2023-12-14T11:50:35;5.53;;;5.03;;
13807;SDS011;40769;51.512;5.494;2023-12-14T11:53:02;6.07;;;5.57;;
13807;SDS011;40769;51.512;5.494;2023-12-14T11:55:32;6.22;;;5.65;;
13807;SDS011;40769;51.512;5.494;2023-12-14T11:57:59;5.68;;;5.18;;
13807;SDS011;40769;51.512;5.494;2023-12-14T12:00:26;5.30;;;4.90;;
13807;SDS011;40769;51.512;5.494;2023-12-14T12:03:06;4.90;;;4.50;;
13807;SDS011;40769;51.512;5.494;2023-12-14T12:05:37;5.50;;;5.10;;
13807;SDS011;40769;51.512;5.494;2023-12-14T12:08:12;4.70;;;4.30;;
13807;SDS011;40769;51.512;5.494;2023-12-14T12:10:40;4.82;;;4.43;;
13807;SDS011;40769;51.512;5.494;2023-12-14T12:13:13;5.40;;;4.90;;
13807;SDS011;40769;51.512;5.494;2023-12-14T12:15:40;5.82;;;5.32;;
13807;SDS011;40769;51.512;5.494;2023-12-14T12:18:06;5.43;;;4.97;;
13807;SDS011;40769;51.512;5.494;2023-12-14T12:20:33;6.15;;;5.65;;
13807;SDS011;40769;51.512;5.494;2023-12-14T12:23:02;5.85;;;5.38;;
13807;SDS011;40769;51.512;5.494;2023-12-14T12:25:28;5.05;;;4.65;;
13807;SDS011;40769;51.512;5.494;2023-12-14T12:27:58;5.43;;;4.93;;
13807;SDS011;40769;51.512;5.494;2023-12-14T12:30:25;6.25;;;5.75;;
13807;SDS011;40769;51.512;5.494;2023-12-14T12:32:51;6.00;;;5.60;;
13807;SDS011;40769;51.512;5.494;2023-12-14T12:35:17;5.88;;;5.38;;
13807;SDS011;40769;51.512;5.494;2023-12-14T12:37:46;6.88;;;5.70;;
13807;SDS011;40769;51.512;5.494;2023-12-14T12:40:18;5.80;;;5.30;;
13807;SDS011;40769;51.512;5.494;2023-12-14T12:42:47;4.63;;;4.25;;
13807;SDS011;40769;51.512;5.494;2023-12-14T12:45:14;5.88;;;5.38;;
13807;SDS011;40769;51.512;5.494;2023-12-14T12:47:52;5.75;;;5.25;;
13807;SDS011;40769;51.512;5.494;2023-12-14T12:50:18;7.20;;;4.55;;
13807;SDS011;40769;51.512;5.494;2023-12-14T12:52:45;5.30;;;4.90;;
13807;SDS011;40769;51.512;5.494;2023-12-14T12:55:13;6.68;;;5.00;;
13807;SDS011;40769;51.512;5.494;2023-12-14T12:57:40;6.18;;;5.68;;
13807;SDS011;40769;51.512;5.494;2023-12-14T13:00:09;5.57;;;5.15;;
13807;SDS011;40769;51.512;5.494;2023-12-14T13:02:41;5.65;;;5.25;;
13807;SDS011;40769;51.512;5.494;2023-12-14T13:05:08;5.60;;;5.20;;
13807;SDS011;40769;51.512;5.494;2023-12-14T13:07:37;5.97;;;5.47;;
13807;SDS011;40769;51.512;5.494;2023-12-14T13:10:03;5.78;;;5.28;;
13807;SDS011;40769;51.512;5.494;2023-12-14T13:12:31;5.30;;;4.90;;
13807;SDS011;40769;51.512;5.494;2023-12-14T13:14:56;5.80;;;5.40;;
13807;SDS011;40769;51.512;5.494;2023-12-14T13:17:22;6.40;;;5.90;;
13807;SDS011;40769;51.512;5.494;2023-12-14T13:19:48;5.68;;;5.25;;
13807;SDS011;40769;51.512;5.494;2023-12-14T13:22:14;5.40;;;5.00;;
13807;SDS011;40769;51.512;5.494;2023-12-14T13:24:39;5.75;;;5.25;;
13807;SDS011;40769;51.512;5.494;2023-12-14T13:27:05;7.10;;;6.55;;
13807;SDS011;40769;51.512;5.494;2023-12-14T13:29:31;6.50;;;6.00;;
13807;SDS011;40769;51.512;5.494;2023-12-14T13:31:57;5.30;;;4.90;;
13807;SDS011;40769;51.512;5.494;2023-12-14T13:34:24;5.75;;;5.35;;
13807;SDS011;40769;51.512;5.494;2023-12-14T13:36:50;4.82;;;4.43;;
13807;SDS011;40769;51.512;5.494;2023-12-14T13:39:16;5.45;;;5.05;;
13807;SDS011;40769;51.512;5.494;2023-12-14T13:41:41;5.10;;;4.70;;
13807;SDS011;40769;51.512;5.494;2023-12-14T13:44:07;5.00;;;4.60;;
13807;SDS011;40769;51.512;5.494;2023-12-14T13:46:32;4.80;;;4.45;;
13807;SDS011;40769;51.512;5.494;2023-12-14T13:48:58;4.82;;;4.43;;
13807;SDS011;40769;51.512;5.494;2023-12-14T13:51:24;4.38;;;4.07;;
13807;SDS011;40769;51.512;5.494;2023-12-14T13:53:50;5.35;;;4.85;;
13807;SDS011;40769;51.512;5.494;2023-12-14T13:56:19;4.95;;;4.55;;
13807;SDS011;40769;51.512;5.494;2023-12-14T13:58:44;4.63;;;4.25;;
13807;SDS011;40769;51.512;5.494;2023-12-14T14:01:10;4.53;;;4.20;;
13807;SDS011;40769;51.512;5.494;2023-12-14T14:03:36;5.32;;;4.90;;
13807;SDS011;40769;51.512;5.494;2023-12-14T14:06:05;4.40;;;4.10;;
13807;SDS011;40769;51.512;5.494;2023-12-14T14:08:31;3.88;;;3.58;;
13807;SDS011;40769;51.512;5.494;2023-12-14T14:10:57;4.90;;;4.50;;
13807;SDS011;40769;51.512;5.494;2023-12-14T14:13:24;5.28;;;4.80;;
13807;SDS011;40769;51.512;5.494;2023-12-14T14:15:49;5.18;;;4.78;;
13807;SDS011;40769;51.512;5.494;2023-12-14T14:18:15;5.00;;;4.70;;
13807;SDS011;40769;51.512;5.494;2023-12-14T14:20:41;5.40;;;4.90;;
13807;SDS011;40769;51.512;5.494;2023-12-14T14:23:07;4.95;;;4.55;;
13807;SDS011;40769;51.512;5.494;2023-12-14T14:25:32;4.65;;;4.25;;
13807;SDS011;40769;51.512;5.494;2023-12-14T14:27:58;4.60;;;4.30;;
13807;SDS011;40769;51.512;5.494;2023-12-14T14:30:24;5.03;;;4.63;;
13807;SDS011;40769;51.512;5.494;2023-12-14T14:32:50;4.85;;;4.45;;
13807;SDS011;40769;51.512;5.494;2023-12-14T14:35:16;4.95;;;4.57;;
13807;SDS011;40769;51.512;5.494;2023-12-14T14:37:41;5.25;;;4.85;;
13807;SDS011;40769;51.512;5.494;2023-12-14T14:40:10;5.57;;;5.07;;
13807;SDS011;40769;51.512;5.494;2023-12-14T14:42:36;5.07;;;4.63;;
13807;SDS011;40769;51.512;5.494;2023-12-14T14:45:02;5.45;;;5.05;;
13807;SDS011;40769;51.512;5.494;2023-12-14T14:47:28;5.68;;;5.28;;